createdAt,value
2019-04-29T00:00:34.002Z,8.60
2019-04-29T00:03:03.363Z,8.60
2019-04-29T00:05:32.648Z,8.60
2019-04-29T00:08:02.188Z,8.60
2019-04-29T00:10:31.902Z,8.70
2019-04-29T00:13:01.367Z,8.60
2019-04-29T00:15:38.278Z,8.60
2019-04-29T00:18:11.910Z,8.60
2019-04-29T00:20:42.823Z,8.40
2019-04-29T00:23:12.110Z,8.10
2019-04-29T00:25:41.629Z,8.00
2019-04-29T00:28:11.182Z,7.80
2019-04-29T00:30:41.151Z,7.90
2019-04-29T00:33:10.443Z,7.80
2019-04-29T00:35:40.161Z,7.90
2019-04-29T00:38:27.584Z,7.90
2019-04-29T00:41:01.426Z,8.00
2019-04-29T00:43:32.360Z,8.10
2019-04-29T00:46:01.634Z,8.00
2019-04-29T00:48:30.911Z,7.90
2019-04-29T00:51:00.267Z,7.80
2019-04-29T00:53:29.728Z,7.80
2019-04-29T00:56:00.646Z,7.70
2019-04-29T00:58:29.930Z,7.70
2019-04-29T01:00:59.346Z,7.70
2019-04-29T01:03:29.090Z,7.80
2019-04-29T01:05:58.647Z,7.70
2019-04-29T01:08:27.999Z,7.70
2019-04-29T01:10:57.280Z,7.70
2019-04-29T01:13:26.563Z,7.70
2019-04-29T01:15:55.834Z,7.70
2019-04-29T01:18:25.131Z,7.70
2019-04-29T01:20:54.707Z,7.80
2019-04-29T01:23:24.002Z,7.80
2019-04-29T01:25:54.992Z,7.90
2019-04-29T01:28:28.631Z,7.90
2019-04-29T01:31:01.895Z,7.90
2019-04-29T01:33:31.187Z,7.90
2019-04-29T01:36:04.791Z,7.90
2019-04-29T01:38:34.078Z,7.90
2019-04-29T01:41:21.550Z,7.80
2019-04-29T01:44:04.805Z,7.90
2019-04-29T01:46:34.096Z,7.80
2019-04-29T01:49:03.546Z,7.80
2019-04-29T01:51:32.843Z,7.80
2019-04-29T01:54:02.119Z,7.80
2019-04-29T01:56:31.402Z,7.80
2019-04-29T01:59:00.678Z,7.80
2019-04-29T02:01:29.963Z,7.80
2019-04-29T02:03:59.242Z,7.80
2019-04-29T02:06:28.815Z,7.60
2019-04-29T02:08:58.107Z,7.60
2019-04-29T02:11:27.378Z,7.40
2019-04-29T02:13:56.671Z,7.50
2019-04-29T02:16:25.974Z,7.50
2019-04-29T02:18:55.309Z,7.60
2019-04-29T02:21:24.574Z,7.60
2019-04-29T02:23:55.503Z,7.60
2019-04-29T02:26:24.795Z,7.50
2019-04-29T02:28:54.078Z,7.50
2019-04-29T02:31:38.560Z,7.50
2019-04-29T02:34:08.493Z,7.50
2019-04-29T02:36:38.528Z,7.50
2019-04-29T02:39:31.351Z,7.60
2019-04-29T02:42:18.932Z,7.70
2019-04-29T02:44:48.746Z,7.80
2019-04-29T02:47:18.016Z,7.40
2019-04-29T02:49:47.307Z,7.00
2019-04-29T02:52:16.855Z,6.70
2019-04-29T02:54:46.710Z,6.70
2019-04-29T02:57:32.986Z,6.60
2019-04-29T03:00:12.759Z,6.60
2019-04-29T03:02:43.692Z,6.70
2019-04-29T03:05:23.674Z,6.80
2019-04-29T03:07:53.037Z,6.80
2019-04-29T03:10:22.375Z,7.00
2019-04-29T03:12:51.670Z,6.90
2019-04-29T03:15:24.025Z,7.00
2019-04-29T03:17:53.387Z,7.10
2019-04-29T03:20:29.778Z,7.10
2019-04-29T03:23:06.768Z,7.10
2019-04-29T03:25:36.212Z,7.20
2019-04-29T03:28:05.750Z,7.50
2019-04-29T03:30:35.350Z,7.60
2019-04-29T03:33:04.755Z,7.70
2019-04-29T03:35:34.042Z,7.80
2019-04-29T03:38:03.612Z,7.80
2019-04-29T03:40:32.918Z,7.80
2019-04-29T03:43:02.264Z,7.80
2019-04-29T03:45:31.877Z,7.80
2019-04-29T03:48:01.160Z,7.90
2019-04-29T03:50:30.673Z,7.80
2019-04-29T03:52:59.967Z,7.80
2019-04-29T03:55:39.071Z,7.80
2019-04-29T03:58:00.284Z,7.70
2019-04-29T04:00:29.923Z,7.80
2019-04-29T04:03:03.473Z,7.70
2019-04-29T04:05:34.402Z,7.70
2019-04-29T04:08:11.138Z,7.80
2019-04-29T04:10:40.424Z,7.80
2019-04-29T04:13:09.949Z,7.70
2019-04-29T04:15:39.560Z,7.70
2019-04-29T04:18:19.927Z,7.70
2019-04-29T04:20:49.261Z,7.80
2019-04-29T04:23:18.551Z,7.80
2019-04-29T04:25:47.823Z,7.90
2019-04-29T04:28:17.135Z,7.80
2019-04-29T04:30:46.443Z,7.90
2019-04-29T04:33:16.128Z,7.80
2019-04-29T04:35:45.637Z,7.80
2019-04-29T04:38:14.904Z,7.80
2019-04-29T04:41:04.175Z,7.80
2019-04-29T04:43:33.578Z,7.90
2019-04-29T04:46:02.839Z,7.90
2019-04-29T04:48:32.131Z,7.90
2019-04-29T04:51:01.420Z,8.00
2019-04-29T04:53:30.706Z,7.90
2019-04-29T04:56:01.351Z,8.10
2019-04-29T04:58:30.637Z,8.20
2019-04-29T05:00:59.957Z,8.20
2019-04-29T05:03:29.239Z,8.20
2019-04-29T05:05:58.515Z,8.20
2019-04-29T05:08:27.798Z,8.20
2019-04-29T05:10:57.344Z,8.30
2019-04-29T05:13:28.392Z,8.30
2019-04-29T05:15:58.022Z,8.30
2019-04-29T05:18:27.296Z,8.40
2019-04-29T05:20:56.584Z,8.50
2019-04-29T05:23:25.866Z,8.50
2019-04-29T05:25:55.413Z,8.60
2019-04-29T05:28:24.717Z,8.70
2019-04-29T05:30:53.991Z,8.80
2019-04-29T05:33:23.272Z,8.90
2019-04-29T05:36:01.936Z,9.00
2019-04-29T05:38:35.523Z,9.10
2019-04-29T05:41:04.845Z,9.20
2019-04-29T05:43:53.887Z,9.40
2019-04-29T05:46:40.202Z,9.50
2019-04-29T05:49:11.226Z,9.50
2019-04-29T05:51:47.938Z,9.60
2019-04-29T05:54:21.573Z,9.70
2019-04-29T05:56:50.902Z,9.70
2019-04-29T05:59:20.179Z,9.70
2019-04-29T06:01:49.473Z,9.80
2019-04-29T06:04:18.816Z,9.90
2019-04-29T06:06:48.103Z,9.90
2019-04-29T06:09:18.369Z,10.00
2019-04-29T06:11:47.927Z,10.10
2019-04-29T06:14:17.219Z,10.10
2019-04-29T06:16:46.494Z,10.10
2019-04-29T06:19:16.056Z,10.00
2019-04-29T06:21:45.342Z,9.90
2019-04-29T06:24:14.859Z,9.80
2019-04-29T06:26:44.161Z,9.70
2019-04-29T06:29:13.430Z,9.60
2019-04-29T06:31:42.788Z,9.60
2019-04-29T06:34:12.367Z,9.60
2019-04-29T06:36:41.641Z,9.60
2019-04-29T06:39:10.935Z,9.80
2019-04-29T06:41:40.494Z,9.90
2019-04-29T06:44:15.918Z,10.10
2019-04-29T06:46:42.460Z,10.20
2019-04-29T06:49:11.784Z,10.30
2019-04-29T06:51:41.122Z,10.30
2019-04-29T06:54:10.667Z,10.20
2019-04-29T06:56:39.957Z,10.30
2019-04-29T06:59:11.992Z,10.30
2019-04-29T07:01:40.235Z,10.40
2019-04-29T07:04:09.516Z,10.50
2019-04-29T07:06:38.826Z,10.50
2019-04-29T07:09:08.122Z,10.60
2019-04-29T07:11:38.483Z,10.60
2019-04-29T07:14:07.982Z,10.60
2019-04-29T07:16:37.254Z,10.90
2019-04-29T07:19:06.615Z,11.00
2019-04-29T07:21:35.898Z,11.20
2019-04-29T07:24:05.256Z,11.10
2019-04-29T07:26:34.555Z,11.10
2019-04-29T07:29:04.147Z,11.20
2019-04-29T07:31:35.109Z,11.30
2019-04-29T07:34:04.672Z,11.30
2019-04-29T07:36:33.955Z,11.40
2019-04-29T07:39:04.707Z,11.50
2019-04-29T07:41:34.240Z,11.50
2019-04-29T07:44:04.025Z,11.50
2019-04-29T07:46:55.678Z,11.70
2019-04-29T07:49:12.767Z,11.90
2019-04-29T07:51:40.809Z,12.10
2019-04-29T07:54:11.046Z,12.30
2019-04-29T07:56:42.463Z,12.40
2019-04-29T07:59:12.756Z,12.40
2019-04-29T08:01:42.036Z,12.60
2019-04-29T08:04:12.339Z,12.70
2019-04-29T08:06:44.700Z,12.90
2019-04-29T08:09:13.718Z,13.00
2019-04-29T08:11:43.130Z,13.30
2019-04-29T08:14:12.656Z,13.20
2019-04-29T08:16:41.959Z,13.20
2019-04-29T08:19:11.571Z,13.30
2019-04-29T08:21:41.174Z,13.50
2019-04-29T08:24:11.553Z,13.70
2019-04-29T08:26:47.302Z,14.00
2019-04-29T08:29:13.002Z,14.20
2019-04-29T08:31:42.304Z,14.20
2019-04-29T08:34:11.587Z,14.40
2019-04-29T08:36:40.887Z,14.40
2019-04-29T08:39:10.165Z,14.30
2019-04-29T08:41:41.119Z,14.50
2019-04-29T08:44:21.577Z,14.80
2019-04-29T08:46:52.912Z,15.00
2019-04-29T08:49:22.260Z,14.90
2019-04-29T08:51:51.594Z,14.70
2019-04-29T08:54:21.409Z,14.80
2019-04-29T08:57:02.417Z,15.00
2019-04-29T08:59:24.420Z,15.40
2019-04-29T09:01:53.175Z,15.50
2019-04-29T09:04:22.471Z,15.50
2019-04-29T09:06:51.918Z,15.70
2019-04-29T09:09:29.187Z,15.70
2019-04-29T09:11:52.187Z,16.00
2019-04-29T09:14:21.491Z,16.10
2019-04-29T09:16:51.083Z,16.20
2019-04-29T09:19:20.691Z,16.20
2019-04-29T09:21:51.935Z,16.30
2019-04-29T09:24:21.227Z,16.40
2019-04-29T09:26:52.138Z,16.40
2019-04-29T09:29:30.731Z,16.60
2019-04-29T09:32:00.839Z,16.60
2019-04-29T09:34:30.420Z,16.60
2019-04-29T09:36:59.707Z,16.30
2019-04-29T09:39:42.367Z,16.20
2019-04-29T09:42:20.653Z,16.10
2019-04-29T09:45:03.320Z,16.00
2019-04-29T09:47:33.075Z,16.10
2019-04-29T09:50:02.436Z,16.00
2019-04-29T09:52:31.720Z,16.00
2019-04-29T09:55:04.136Z,16.10
2019-04-29T09:57:32.108Z,16.10
2019-04-29T10:00:12.019Z,16.20
2019-04-29T10:02:45.731Z,16.20
2019-04-29T10:05:22.991Z,16.30
2019-04-29T10:07:52.267Z,16.10
2019-04-29T10:10:21.549Z,16.00
2019-04-29T10:12:53.783Z,15.90
2019-04-29T10:15:24.145Z,16.20
2019-04-29T10:18:07.255Z,16.20
2019-04-29T10:20:44.364Z,16.30
2019-04-29T10:23:13.635Z,16.20
2019-04-29T10:25:42.927Z,16.30
2019-04-29T10:28:12.198Z,16.40
2019-04-29T10:30:41.859Z,16.70
2019-04-29T10:33:12.815Z,16.80
2019-04-29T10:35:45.251Z,16.80
2019-04-29T10:38:13.815Z,16.70
2019-04-29T10:41:00.138Z,16.70
2019-04-29T10:43:29.270Z,16.80
2019-04-29T10:46:02.867Z,16.80
2019-04-29T10:48:39.835Z,16.60
2019-04-29T10:51:10.819Z,16.50
2019-04-29T10:53:40.111Z,16.70
2019-04-29T10:56:09.398Z,16.60
2019-04-29T10:58:38.707Z,16.50
2019-04-29T11:01:30.614Z,16.40
2019-04-29T11:04:00.752Z,16.50
2019-04-29T11:06:31.346Z,16.40
2019-04-29T11:09:03.583Z,16.20
2019-04-29T11:11:35.183Z,16.30
2019-04-29T11:14:04.533Z,16.30
2019-04-29T11:16:46.265Z,16.20
2019-04-29T11:19:05.752Z,16.30
2019-04-29T11:21:38.901Z,16.20
2019-04-29T11:24:12.052Z,16.50
2019-04-29T11:26:44.721Z,16.60
2019-04-29T11:29:13.944Z,16.80
2019-04-29T11:31:43.611Z,16.90
2019-04-29T11:34:15.973Z,17.10
2019-04-29T11:36:45.555Z,17.30
2019-04-29T11:39:16.039Z,17.70
2019-04-29T11:41:45.538Z,17.80
2019-04-29T11:44:14.818Z,18.00
2019-04-29T11:46:44.542Z,18.00
2019-04-29T11:49:16.786Z,18.30
2019-04-29T11:52:07.796Z,18.80
2019-04-29T11:54:18.421Z,18.70
2019-04-29T11:56:48.726Z,18.60
2019-04-29T11:59:25.903Z,18.50
2019-04-29T12:01:59.598Z,18.50
2019-04-29T12:04:35.335Z,18.50
2019-04-29T12:07:05.184Z,18.60
2019-04-29T12:09:34.889Z,19.20
2019-04-29T12:12:08.041Z,19.60
2019-04-29T12:14:37.968Z,20.00
2019-04-29T12:17:09.483Z,20.60
2019-04-29T12:19:43.405Z,20.90
2019-04-29T12:22:26.877Z,21.10
2019-04-29T12:24:43.642Z,20.90
2019-04-29T12:27:14.959Z,20.50
2019-04-29T12:29:44.599Z,20.10
2019-04-29T12:32:33.715Z,19.40
2019-04-29T12:35:16.607Z,19.20
2019-04-29T12:37:46.123Z,19.30
2019-04-29T12:40:17.504Z,19.20
2019-04-29T12:43:05.101Z,18.90
2019-04-29T12:45:53.571Z,18.60
2019-04-29T12:48:24.982Z,18.30
2019-04-29T12:50:57.317Z,18.10
2019-04-29T12:53:24.078Z,18.00
2019-04-29T12:55:55.039Z,17.90
2019-04-29T12:58:25.870Z,17.70
2019-04-29T13:01:01.167Z,17.70
2019-04-29T13:03:39.498Z,17.70
2019-04-29T13:06:23.222Z,17.90
2019-04-29T13:08:49.635Z,18.00
2019-04-29T13:11:20.780Z,17.90
2019-04-29T13:13:51.377Z,17.70
2019-04-29T13:16:25.207Z,17.60
2019-04-29T13:19:11.634Z,17.20
2019-04-29T13:21:33.157Z,17.40
2019-04-29T13:24:13.453Z,17.60
2019-04-29T13:26:36.922Z,17.50
2019-04-29T13:29:04.551Z,17.40
2019-04-29T13:31:38.699Z,17.40
2019-04-29T13:34:22.925Z,17.30
2019-04-29T13:36:37.791Z,17.30
2019-04-29T13:39:08.380Z,17.10
2019-04-29T13:41:55.517Z,17.00
2019-04-29T13:44:08.647Z,16.90
2019-04-29T13:46:46.175Z,16.70
2019-04-29T13:49:15.281Z,16.50
2019-04-29T13:51:46.055Z,16.40
2019-04-29T13:54:15.331Z,16.50
2019-04-29T13:56:55.640Z,16.50
2019-04-29T13:59:29.483Z,16.50
2019-04-29T14:02:07.242Z,16.40
2019-04-29T14:04:41.811Z,16.40
2019-04-29T14:07:14.175Z,16.30
2019-04-29T14:09:42.161Z,16.20
2019-04-29T14:12:46.429Z,16.10
2019-04-29T14:14:42.727Z,16.00
2019-04-29T14:17:25.880Z,16.00
2019-04-29T14:19:43.008Z,16.00
2019-04-29T14:22:22.135Z,15.80
2019-04-29T14:24:46.558Z,15.50
2019-04-29T14:27:24.707Z,15.30
2019-04-29T14:29:45.243Z,14.90
2019-04-29T14:32:18.134Z,14.60
2019-04-29T14:34:47.147Z,14.60
2019-04-29T14:37:24.460Z,14.70
2019-04-29T14:39:47.415Z,14.80
2019-04-29T14:42:21.263Z,14.80
2019-04-29T14:44:54.875Z,14.80
2019-04-29T14:47:42.171Z,14.90
2019-04-29T14:50:15.547Z,14.90
2019-04-29T14:52:48.854Z,14.90
2019-04-29T14:55:19.861Z,14.90
2019-04-29T14:57:46.503Z,14.80
2019-04-29T15:00:23.550Z,14.70
2019-04-29T15:02:55.848Z,14.70
2019-04-29T15:05:23.943Z,14.70
2019-04-29T15:07:53.274Z,14.80
2019-04-29T15:10:22.577Z,14.80
2019-04-29T15:13:01.444Z,14.80
2019-04-29T15:15:29.799Z,14.80
2019-04-29T15:18:25.582Z,14.80
2019-04-29T15:20:56.287Z,14.90
2019-04-29T15:23:29.292Z,14.70
2019-04-29T15:25:56.127Z,14.70
2019-04-29T15:28:25.422Z,14.70
2019-04-29T15:30:54.711Z,14.70
2019-04-29T15:33:23.997Z,14.70
2019-04-29T15:35:54.862Z,14.60
2019-04-29T15:38:24.250Z,14.60
2019-04-29T15:40:53.559Z,14.70
2019-04-29T15:43:45.048Z,14.70
2019-04-29T15:45:53.818Z,14.70
2019-04-29T15:48:23.093Z,14.70
2019-04-29T15:50:52.715Z,14.90
2019-04-29T15:53:21.982Z,15.00
2019-04-29T15:56:05.694Z,14.90
2019-04-29T15:58:27.056Z,14.80
2019-04-29T16:00:53.299Z,14.90
2019-04-29T16:03:22.586Z,14.90
2019-04-29T16:06:11.041Z,15.00
2019-04-29T16:08:29.626Z,14.90
2019-04-29T16:11:00.654Z,14.90
2019-04-29T16:13:30.251Z,14.50
2019-04-29T16:15:59.535Z,14.40
2019-04-29T16:18:28.826Z,14.40
2019-04-29T16:20:58.164Z,14.30
2019-04-29T16:23:27.483Z,14.10
2019-04-29T16:25:56.778Z,14.00
2019-04-29T16:28:31.795Z,13.90
2019-04-29T16:30:57.303Z,13.80
2019-04-29T16:33:26.825Z,13.70
2019-04-29T16:35:57.668Z,13.60
2019-04-29T16:38:27.350Z,13.50
2019-04-29T16:40:58.275Z,13.20
2019-04-29T16:43:35.351Z,13.20
2019-04-29T16:46:12.067Z,13.20
2019-04-29T16:48:41.348Z,13.20
2019-04-29T16:51:14.635Z,13.20
2019-04-29T16:53:41.947Z,13.20
2019-04-29T16:56:16.001Z,13.30
2019-04-29T16:58:42.203Z,13.30
2019-04-29T17:01:11.559Z,13.20
2019-04-29T17:03:40.834Z,13.10
2019-04-29T17:06:10.123Z,13.10
2019-04-29T17:09:03.306Z,13.00
2019-04-29T17:11:41.365Z,13.00
2019-04-29T17:14:13.078Z,12.90
2019-04-29T17:16:41.884Z,12.90
2019-04-29T17:19:11.463Z,12.80
2019-04-29T17:21:40.777Z,12.80
2019-04-29T17:24:10.051Z,12.60
2019-04-29T17:26:46.771Z,12.50
2019-04-29T17:29:38.926Z,12.40
2019-04-29T17:32:12.339Z,12.40
2019-04-29T17:34:58.323Z,12.40
2019-04-29T17:37:13.571Z,12.40
2019-04-29T17:39:42.934Z,12.50
2019-04-29T17:42:12.461Z,12.40
2019-04-29T17:44:45.803Z,12.40
2019-04-29T17:47:19.426Z,12.40
2019-04-29T17:49:50.814Z,12.40
2019-04-29T17:52:21.910Z,12.30
2019-04-29T17:54:55.770Z,12.30
2019-04-29T17:57:36.403Z,12.30
2019-04-29T18:00:11.987Z,12.30
2019-04-29T18:02:52.522Z,12.40
2019-04-29T18:05:32.953Z,12.40
2019-04-29T18:08:06.319Z,12.40
2019-04-29T18:10:40.298Z,12.40
2019-04-29T18:13:12.319Z,12.40
2019-04-29T18:15:57.604Z,12.40
2019-04-29T18:18:17.297Z,12.40
2019-04-29T18:21:06.457Z,12.30
2019-04-29T18:23:56.795Z,12.30
2019-04-29T18:26:35.835Z,12.20
2019-04-29T18:29:07.738Z,12.20
2019-04-29T18:31:36.331Z,12.10
2019-04-29T18:34:05.695Z,12.10
2019-04-29T18:36:35.670Z,12.00
2019-04-29T18:39:08.576Z,11.90
2019-04-29T18:41:38.758Z,11.90
2019-04-29T18:44:08.050Z,11.90
2019-04-29T18:46:37.330Z,11.90
2019-04-29T18:49:08.081Z,11.90
2019-04-29T18:51:37.338Z,11.90
2019-04-29T18:54:06.903Z,11.90
2019-04-29T18:56:37.705Z,11.90
2019-04-29T18:59:07.374Z,11.90
2019-04-29T19:01:36.655Z,11.80
2019-04-29T19:04:16.192Z,11.70
2019-04-29T19:06:41.307Z,11.70
2019-04-29T19:09:17.997Z,11.70
2019-04-29T19:11:42.251Z,11.60
2019-04-29T19:14:11.615Z,11.60
2019-04-29T19:16:40.904Z,11.70
2019-04-29T19:19:10.187Z,11.70
2019-04-29T19:21:39.467Z,11.70
2019-04-29T19:24:08.822Z,11.60
2019-04-29T19:26:38.119Z,11.50
2019-04-29T19:29:09.598Z,11.50
2019-04-29T19:31:46.707Z,11.50
2019-04-29T19:34:13.445Z,11.60
2019-04-29T19:36:40.678Z,11.60
2019-04-29T19:39:10.208Z,11.60
2019-04-29T19:41:39.762Z,11.60
2019-04-29T19:44:09.042Z,11.60
2019-04-29T19:46:41.282Z,11.60
2019-04-29T19:49:10.148Z,11.60
2019-04-29T19:51:43.716Z,11.70
2019-04-29T19:54:10.495Z,11.70
2019-04-29T19:56:39.795Z,11.60
2019-04-29T19:59:13.322Z,11.40
2019-04-29T20:01:40.688Z,11.40
2019-04-29T20:04:19.700Z,11.40
2019-04-29T20:06:46.871Z,11.40
2019-04-29T20:09:21.368Z,11.30
2019-04-29T20:11:47.677Z,11.30
2019-04-29T20:14:26.002Z,11.30
2019-04-29T20:16:57.566Z,11.30
2019-04-29T20:19:27.431Z,11.30
2019-04-29T20:22:00.380Z,11.30
2019-04-29T20:24:27.795Z,11.30
2019-04-29T20:26:57.262Z,11.30
2019-04-29T20:29:33.517Z,11.20
2019-04-29T20:31:57.590Z,11.20
2019-04-29T20:34:28.246Z,11.10
2019-04-29T20:36:58.166Z,11.10
2019-04-29T20:39:27.798Z,11.20
2019-04-29T20:42:00.935Z,11.20
2019-04-29T20:44:28.339Z,11.10
2019-04-29T20:47:20.381Z,11.10
2019-04-29T20:49:30.876Z,11.10
2019-04-29T20:52:05.529Z,11.10
2019-04-29T20:54:36.257Z,11.10
2019-04-29T20:57:17.392Z,11.20
2019-04-29T20:59:37.122Z,11.20
2019-04-29T21:02:12.605Z,11.30
2019-04-29T21:04:46.267Z,11.30
2019-04-29T21:07:10.759Z,11.30
2019-04-29T21:09:40.049Z,11.40
2019-04-29T21:12:10.986Z,11.40
2019-04-29T21:14:42.190Z,11.50
2019-04-29T21:17:11.499Z,11.50
2019-04-29T21:19:41.103Z,11.50
2019-04-29T21:22:12.971Z,11.50
2019-04-29T21:24:41.374Z,11.60
2019-04-29T21:27:10.952Z,11.90
2019-04-29T21:29:40.558Z,12.00
2019-04-29T21:32:10.188Z,12.20
2019-04-29T21:34:41.107Z,12.30
2019-04-29T21:37:21.090Z,12.40
2019-04-29T21:39:52.027Z,12.40
2019-04-29T21:42:41.250Z,12.40
2019-04-29T21:45:12.366Z,12.50
2019-04-29T21:47:45.138Z,12.50
2019-04-29T21:50:15.192Z,12.40
2019-04-29T21:52:46.690Z,12.40
2019-04-29T21:55:16.247Z,12.40
2019-04-29T21:57:45.758Z,12.40
2019-04-29T22:00:20.005Z,12.30
2019-04-29T22:02:49.170Z,12.40
2019-04-29T22:05:19.011Z,12.40
2019-04-29T22:07:48.302Z,12.30
2019-04-29T22:10:19.964Z,12.40
2019-04-29T22:12:55.227Z,12.30
2019-04-29T22:15:29.922Z,12.40
2019-04-29T22:17:56.387Z,12.40
2019-04-29T22:20:22.181Z,12.40
2019-04-29T22:22:51.485Z,12.40
2019-04-29T22:25:20.858Z,12.30
2019-04-29T22:27:50.387Z,12.30
2019-04-29T22:30:20.301Z,12.40
2019-04-29T22:32:51.740Z,12.30
2019-04-29T22:35:20.790Z,12.30
2019-04-29T22:37:50.087Z,12.30
2019-04-29T22:40:19.468Z,12.20
2019-04-29T22:43:04.839Z,12.10
2019-04-29T22:45:29.573Z,12.10
2019-04-29T22:48:12.050Z,11.90
2019-04-29T22:50:33.664Z,11.80
2019-04-29T22:53:07.301Z,11.90
2019-04-29T22:55:35.684Z,12.00
2019-04-29T22:58:08.126Z,12.10
2019-04-29T23:00:36.210Z,12.10
2019-04-29T23:03:05.690Z,12.10
2019-04-29T23:05:37.932Z,12.10
2019-04-29T23:08:07.342Z,12.10
2019-04-29T23:10:36.646Z,12.20
2019-04-29T23:13:06.375Z,12.20
2019-04-29T23:15:35.972Z,12.20
2019-04-29T23:18:06.611Z,12.20
2019-04-29T23:20:49.415Z,12.10
2019-04-29T23:23:20.676Z,12.10
2019-04-29T23:25:52.018Z,12.00
2019-04-29T23:28:22.565Z,12.00
2019-04-29T23:30:53.391Z,11.90
2019-04-29T23:33:24.052Z,11.80
2019-04-29T23:35:55.960Z,11.70
2019-04-29T23:38:25.552Z,11.60
2019-04-29T23:40:56.407Z,11.40
2019-04-29T23:43:28.373Z,11.40
2019-04-29T23:46:00.373Z,11.40
2019-04-29T23:48:38.811Z,11.50
2019-04-29T23:50:58.882Z,11.70
2019-04-29T23:53:28.186Z,11.80
2019-04-29T23:56:00.157Z,11.90
2019-04-29T23:58:39.352Z,12.00
